sensor_id;sensor_type;location;lat;lon;timestamp;temperature;humidity
8436;DHT22;4255;48.730;9.156;2023-07-31T00:00:13;17.50;99.90
8436;DHT22;4255;48.730;9.156;2023-07-31T00:02:39;17.50;99.90
8436;DHT22;4255;48.730;9.156;2023-07-31T00:05:05;17.50;99.90
8436;DHT22;4255;48.730;9.156;2023-07-31T00:07:32;17.40;99.90
8436;DHT22;4255;48.730;9.156;2023-07-31T00:10:00;17.30;99.90
8436;DHT22;4255;48.730;9.156;2023-07-31T00:12:26;17.00;99.90
8436;DHT22;4255;48.730;9.156;2023-07-31T00:14:52;16.90;99.90
8436;DHT22;4255;48.730;9.156;2023-07-31T00:17:18;16.90;99.90
8436;DHT22;4255;48.730;9.156;2023-07-31T00:19:43;16.90;99.90
8436;DHT22;4255;48.730;9.156;2023-07-31T00:22:11;17.00;99.90
8436;DHT22;4255;48.730;9.156;2023-07-31T00:24:37;17.00;99.90
8436;DHT22;4255;48.730;9.156;2023-07-31T00:27:03;17.00;99.90
8436;DHT22;4255;48.730;9.156;2023-07-31T00:29:29;17.00;99.90
8436;DHT22;4255;48.730;9.156;2023-07-31T00:31:55;17.00;99.90
8436;DHT22;4255;48.730;9.156;2023-07-31T00:34:20;17.00;99.90
8436;DHT22;4255;48.730;9.156;2023-07-31T00:36:46;17.00;99.90
8436;DHT22;4255;48.730;9.156;2023-07-31T00:39:11;17.00;99.90
8436;DHT22;4255;48.730;9.156;2023-07-31T00:41:37;17.10;99.90
8436;DHT22;4255;48.730;9.156;2023-07-31T00:44:03;17.00;99.90
8436;DHT22;4255;48.730;9.156;2023-07-31T00:46:28;17.00;99.90
8436;DHT22;4255;48.730;9.156;2023-07-31T00:49:00;17.00;99.90
8436;DHT22;4255;48.730;9.156;2023-07-31T00:51:25;17.00;99.90
8436;DHT22;4255;48.730;9.156;2023-07-31T00:53:51;17.00;99.90
8436;DHT22;4255;48.730;9.156;2023-07-31T00:56:19;16.80;99.90
8436;DHT22;4255;48.730;9.156;2023-07-31T00:58:45;16.60;99.90
8436;DHT22;4255;48.730;9.156;2023-07-31T01:01:11;16.60;99.90
8436;DHT22;4255;48.730;9.156;2023-07-31T01:03:36;16.60;99.90
8436;DHT22;4255;48.730;9.156;2023-07-31T01:11:19;16.50;99.90
8436;DHT22;4255;48.730;9.156;2023-07-31T01:13:46;16.30;99.90
8436;DHT22;4255;48.730;9.156;2023-07-31T01:16:12;16.30;99.90
8436;DHT22;4255;48.730;9.156;2023-07-31T01:18:37;16.20;99.90
8436;DHT22;4255;48.730;9.156;2023-07-31T01:26:33;16.30;99.90
8436;DHT22;4255;48.730;9.156;2023-07-31T01:29:10;16.50;99.90
8436;DHT22;4255;48.730;9.156;2023-07-31T01:31:38;16.60;99.90
8436;DHT22;4255;48.730;9.156;2023-07-31T01:34:06;16.60;99.90
8436;DHT22;4255;48.730;9.156;2023-07-31T01:36:34;16.70;99.90
8436;DHT22;4255;48.730;9.156;2023-07-31T01:39:00;16.60;99.90
8436;DHT22;4255;48.730;9.156;2023-07-31T01:41:26;16.60;99.90
8436;DHT22;4255;48.730;9.156;2023-07-31T01:43:52;16.50;99.90
8436;DHT22;4255;48.730;9.156;2023-07-31T01:46:17;16.40;99.90
8436;DHT22;4255;48.730;9.156;2023-07-31T01:48:43;16.30;99.90
8436;DHT22;4255;48.730;9.156;2023-07-31T01:51:09;16.20;99.90
8436;DHT22;4255;48.730;9.156;2023-07-31T01:53:34;16.10;99.90
8436;DHT22;4255;48.730;9.156;2023-07-31T01:56:00;16.10;99.90
8436;DHT22;4255;48.730;9.156;2023-07-31T01:58:25;16.10;99.90
8436;DHT22;4255;48.730;9.156;2023-07-31T02:00:51;16.10;99.90
8436;DHT22;4255;48.730;9.156;2023-07-31T02:03:17;16.10;99.90
8436;DHT22;4255;48.730;9.156;2023-07-31T02:05:47;16.10;99.90
8436;DHT22;4255;48.730;9.156;2023-07-31T02:11:35;16.20;99.90
8436;DHT22;4255;48.730;9.156;2023-07-31T02:14:01;16.20;99.90
8436;DHT22;4255;48.730;9.156;2023-07-31T02:16:26;16.10;99.90
8436;DHT22;4255;48.730;9.156;2023-07-31T02:18:52;16.10;99.90
8436;DHT22;4255;48.730;9.156;2023-07-31T02:21:17;16.10;99.90
8436;DHT22;4255;48.730;9.156;2023-07-31T02:23:43;16.10;99.90
8436;DHT22;4255;48.730;9.156;2023-07-31T02:26:09;16.20;99.90
8436;DHT22;4255;48.730;9.156;2023-07-31T02:28:34;16.10;99.90
8436;DHT22;4255;48.730;9.156;2023-07-31T02:31:00;16.30;99.90
8436;DHT22;4255;48.730;9.156;2023-07-31T02:33:25;16.40;99.90
8436;DHT22;4255;48.730;9.156;2023-07-31T02:35:51;16.30;99.90
8436;DHT22;4255;48.730;9.156;2023-07-31T02:38:17;16.40;99.90
8436;DHT22;4255;48.730;9.156;2023-07-31T02:40:42;16.30;99.90
8436;DHT22;4255;48.730;9.156;2023-07-31T02:43:08;16.30;99.90
8436;DHT22;4255;48.730;9.156;2023-07-31T02:45:34;16.20;99.90
8436;DHT22;4255;48.730;9.156;2023-07-31T02:48:00;16.20;99.90
8436;DHT22;4255;48.730;9.156;2023-07-31T02:50:26;16.20;99.90
8436;DHT22;4255;48.730;9.156;2023-07-31T02:52:53;16.20;99.90
8436;DHT22;4255;48.730;9.156;2023-07-31T02:55:18;16.20;99.90
8436;DHT22;4255;48.730;9.156;2023-07-31T02:57:44;16.00;99.90
8436;DHT22;4255;48.730;9.156;2023-07-31T03:00:10;16.00;99.90
8436;DHT22;4255;48.730;9.156;2023-07-31T03:02:35;16.10;99.90
8436;DHT22;4255;48.730;9.156;2023-07-31T03:05:01;16.00;99.90
8436;DHT22;4255;48.730;9.156;2023-07-31T03:07:27;16.10;99.90
8436;DHT22;4255;48.730;9.156;2023-07-31T03:09:52;16.00;99.90
8436;DHT22;4255;48.730;9.156;2023-07-31T03:12:18;16.10;99.90
8436;DHT22;4255;48.730;9.156;2023-07-31T03:14:45;16.10;99.90
8436;DHT22;4255;48.730;9.156;2023-07-31T03:17:11;16.00;99.90
8436;DHT22;4255;48.730;9.156;2023-07-31T03:19:36;16.00;99.90
8436;DHT22;4255;48.730;9.156;2023-07-31T03:22:02;16.00;99.90
8436;DHT22;4255;48.730;9.156;2023-07-31T03:24:28;15.90;99.90
8436;DHT22;4255;48.730;9.156;2023-07-31T03:26:54;15.90;99.90
8436;DHT22;4255;48.730;9.156;2023-07-31T03:29:20;15.90;99.90
8436;DHT22;4255;48.730;9.156;2023-07-31T03:31:48;15.80;99.90
8436;DHT22;4255;48.730;9.156;2023-07-31T03:34:14;15.80;99.90
8436;DHT22;4255;48.730;9.156;2023-07-31T03:36:40;15.80;99.90
8436;DHT22;4255;48.730;9.156;2023-07-31T03:39:05;15.80;99.90
8436;DHT22;4255;48.730;9.156;2023-07-31T03:41:34;15.90;99.90
8436;DHT22;4255;48.730;9.156;2023-07-31T03:43:59;15.80;99.90
8436;DHT22;4255;48.730;9.156;2023-07-31T03:46:25;15.80;99.90
8436;DHT22;4255;48.730;9.156;2023-07-31T03:48:51;16.00;99.90
8436;DHT22;4255;48.730;9.156;2023-07-31T03:51:17;16.00;99.90
8436;DHT22;4255;48.730;9.156;2023-07-31T03:53:43;16.10;99.90
8436;DHT22;4255;48.730;9.156;2023-07-31T03:56:09;16.00;99.90
8436;DHT22;4255;48.730;9.156;2023-07-31T03:58:35;16.10;99.90
8436;DHT22;4255;48.730;9.156;2023-07-31T04:01:02;16.10;99.90
8436;DHT22;4255;48.730;9.156;2023-07-31T04:03:28;16.00;99.90
8436;DHT22;4255;48.730;9.156;2023-07-31T04:05:54;15.90;99.90
8436;DHT22;4255;48.730;9.156;2023-07-31T04:08:24;15.90;99.90
8436;DHT22;4255;48.730;9.156;2023-07-31T04:10:49;16.00;99.90
8436;DHT22;4255;48.730;9.156;2023-07-31T04:13:15;16.00;99.90
8436;DHT22;4255;48.730;9.156;2023-07-31T04:15:41;16.10;99.90
8436;DHT22;4255;48.730;9.156;2023-07-31T04:18:07;16.20;99.90
8436;DHT22;4255;48.730;9.156;2023-07-31T04:20:33;16.30;99.90
8436;DHT22;4255;48.730;9.156;2023-07-31T04:22:58;16.40;99.90
8436;DHT22;4255;48.730;9.156;2023-07-31T04:25:24;16.60;99.90
8436;DHT22;4255;48.730;9.156;2023-07-31T04:27:49;16.70;99.90
8436;DHT22;4255;48.730;9.156;2023-07-31T04:30:15;16.80;99.90
8436;DHT22;4255;48.730;9.156;2023-07-31T04:32:41;16.90;99.90
8436;DHT22;4255;48.730;9.156;2023-07-31T04:35:07;17.00;99.90
8436;DHT22;4255;48.730;9.156;2023-07-31T04:37:32;17.00;99.90
8436;DHT22;4255;48.730;9.156;2023-07-31T04:39:58;17.00;99.90
8436;DHT22;4255;48.730;9.156;2023-07-31T04:42:24;17.10;99.90
8436;DHT22;4255;48.730;9.156;2023-07-31T04:44:49;17.10;99.90
8436;DHT22;4255;48.730;9.156;2023-07-31T04:47:15;17.20;99.90
8436;DHT22;4255;48.730;9.156;2023-07-31T04:49:40;17.20;99.90
8436;DHT22;4255;48.730;9.156;2023-07-31T04:52:06;17.30;99.90
8436;DHT22;4255;48.730;9.156;2023-07-31T04:54:32;17.20;99.90
8436;DHT22;4255;48.730;9.156;2023-07-31T04:56:57;17.40;99.90
8436;DHT22;4255;48.730;9.156;2023-07-31T04:59:23;17.50;99.90
8436;DHT22;4255;48.730;9.156;2023-07-31T05:01:48;17.60;99.90
8436;DHT22;4255;48.730;9.156;2023-07-31T05:04:15;17.60;99.90
8436;DHT22;4255;48.730;9.156;2023-07-31T05:06:41;17.60;99.90
8436;DHT22;4255;48.730;9.156;2023-07-31T05:09:07;17.60;99.90
8436;DHT22;4255;48.730;9.156;2023-07-31T05:11:34;17.50;99.90
8436;DHT22;4255;48.730;9.156;2023-07-31T05:14:00;17.70;99.90
8436;DHT22;4255;48.730;9.156;2023-07-31T05:16:25;17.70;99.90
8436;DHT22;4255;48.730;9.156;2023-07-31T05:18:51;17.80;99.90
8436;DHT22;4255;48.730;9.156;2023-07-31T05:21:17;17.90;99.90
8436;DHT22;4255;48.730;9.156;2023-07-31T05:23:42;17.90;99.90
8436;DHT22;4255;48.730;9.156;2023-07-31T05:26:08;17.90;99.90
8436;DHT22;4255;48.730;9.156;2023-07-31T05:28:35;17.90;99.90
8436;DHT22;4255;48.730;9.156;2023-07-31T05:31:02;17.90;99.90
8436;DHT22;4255;48.730;9.156;2023-07-31T05:33:28;17.90;99.90
8436;DHT22;4255;48.730;9.156;2023-07-31T05:35:54;17.90;99.90
8436;DHT22;4255;48.730;9.156;2023-07-31T05:38:19;17.90;99.90
8436;DHT22;4255;48.730;9.156;2023-07-31T05:40:45;17.90;99.90
8436;DHT22;4255;48.730;9.156;2023-07-31T05:43:11;17.90;99.90
8436;DHT22;4255;48.730;9.156;2023-07-31T05:45:36;18.00;99.90
8436;DHT22;4255;48.730;9.156;2023-07-31T05:48:03;18.20;99.90
8436;DHT22;4255;48.730;9.156;2023-07-31T05:50:29;18.20;99.90
8436;DHT22;4255;48.730;9.156;2023-07-31T05:52:55;18.30;99.90
8436;DHT22;4255;48.730;9.156;2023-07-31T05:55:20;18.40;99.90
8436;DHT22;4255;48.730;9.156;2023-07-31T05:57:46;18.50;99.90
8436;DHT22;4255;48.730;9.156;2023-07-31T06:00:13;18.50;99.90
8436;DHT22;4255;48.730;9.156;2023-07-31T06:02:38;18.60;99.90
8436;DHT22;4255;48.730;9.156;2023-07-31T06:05:05;18.80;99.90
8436;DHT22;4255;48.730;9.156;2023-07-31T06:07:33;19.00;99.90
8436;DHT22;4255;48.730;9.156;2023-07-31T06:09:59;19.20;99.90
8436;DHT22;4255;48.730;9.156;2023-07-31T06:12:34;19.10;99.90
8436;DHT22;4255;48.730;9.156;2023-07-31T06:15:01;19.30;99.90
8436;DHT22;4255;48.730;9.156;2023-07-31T06:17:27;19.40;99.90
8436;DHT22;4255;48.730;9.156;2023-07-31T06:19:53;19.30;99.90
8436;DHT22;4255;48.730;9.156;2023-07-31T06:22:18;19.40;99.90
8436;DHT22;4255;48.730;9.156;2023-07-31T06:24:44;19.60;99.90
8436;DHT22;4255;48.730;9.156;2023-07-31T06:27:10;19.80;99.90
8436;DHT22;4255;48.730;9.156;2023-07-31T06:29:36;19.70;99.90
8436;DHT22;4255;48.730;9.156;2023-07-31T06:32:02;19.60;99.90
8436;DHT22;4255;48.730;9.156;2023-07-31T06:34:28;19.60;99.90
8436;DHT22;4255;48.730;9.156;2023-07-31T06:36:55;19.60;99.90
8436;DHT22;4255;48.730;9.156;2023-07-31T06:39:20;19.50;99.90
8436;DHT22;4255;48.730;9.156;2023-07-31T06:41:46;19.40;99.90
8436;DHT22;4255;48.730;9.156;2023-07-31T06:44:12;19.50;99.90
8436;DHT22;4255;48.730;9.156;2023-07-31T06:46:37;19.40;99.90
8436;DHT22;4255;48.730;9.156;2023-07-31T06:49:03;19.60;99.90
8436;DHT22;4255;48.730;9.156;2023-07-31T06:51:29;19.50;99.90
8436;DHT22;4255;48.730;9.156;2023-07-31T06:53:57;19.60;99.90
8436;DHT22;4255;48.730;9.156;2023-07-31T06:56:22;19.70;99.90
8436;DHT22;4255;48.730;9.156;2023-07-31T06:58:48;19.90;99.90
8436;DHT22;4255;48.730;9.156;2023-07-31T07:01:13;20.10;99.90
8436;DHT22;4255;48.730;9.156;2023-07-31T07:03:39;19.90;99.90
8436;DHT22;4255;48.730;9.156;2023-07-31T07:06:05;19.90;99.90
8436;DHT22;4255;48.730;9.156;2023-07-31T07:08:31;19.90;99.90
8436;DHT22;4255;48.730;9.156;2023-07-31T07:10:56;20.10;99.90
8436;DHT22;4255;48.730;9.156;2023-07-31T07:13:22;20.30;99.90
8436;DHT22;4255;48.730;9.156;2023-07-31T07:15:48;20.30;99.90
8436;DHT22;4255;48.730;9.156;2023-07-31T07:18:14;20.30;99.90
8436;DHT22;4255;48.730;9.156;2023-07-31T07:20:45;20.30;99.90
8436;DHT22;4255;48.730;9.156;2023-07-31T07:23:11;20.40;99.90
8436;DHT22;4255;48.730;9.156;2023-07-31T07:25:39;20.50;99.90
8436;DHT22;4255;48.730;9.156;2023-07-31T07:28:05;20.70;99.90
8436;DHT22;4255;48.730;9.156;2023-07-31T07:30:31;20.90;99.90
8436;DHT22;4255;48.730;9.156;2023-07-31T07:33:00;20.90;99.90
8436;DHT22;4255;48.730;9.156;2023-07-31T07:35:25;20.90;99.90
8436;DHT22;4255;48.730;9.156;2023-07-31T07:37:51;21.20;99.90
8436;DHT22;4255;48.730;9.156;2023-07-31T07:40:16;21.00;99.90
8436;DHT22;4255;48.730;9.156;2023-07-31T07:42:42;20.80;99.90
8436;DHT22;4255;48.730;9.156;2023-07-31T07:45:08;20.70;99.90
8436;DHT22;4255;48.730;9.156;2023-07-31T07:47:40;20.80;99.90
8436;DHT22;4255;48.730;9.156;2023-07-31T07:50:06;20.70;99.90
8436;DHT22;4255;48.730;9.156;2023-07-31T07:52:33;20.80;99.90
8436;DHT22;4255;48.730;9.156;2023-07-31T07:54:58;20.80;99.90
8436;DHT22;4255;48.730;9.156;2023-07-31T07:57:25;21.00;99.90
8436;DHT22;4255;48.730;9.156;2023-07-31T07:59:51;21.40;99.90
8436;DHT22;4255;48.730;9.156;2023-07-31T08:02:17;21.60;99.90
8436;DHT22;4255;48.730;9.156;2023-07-31T08:04:42;21.60;99.90
8436;DHT22;4255;48.730;9.156;2023-07-31T08:07:10;21.50;99.90
8436;DHT22;4255;48.730;9.156;2023-07-31T08:09:36;21.70;99.90
8436;DHT22;4255;48.730;9.156;2023-07-31T08:12:01;21.80;99.90
8436;DHT22;4255;48.730;9.156;2023-07-31T08:14:29;21.70;99.90
8436;DHT22;4255;48.730;9.156;2023-07-31T08:16:55;21.60;99.90
8436;DHT22;4255;48.730;9.156;2023-07-31T08:19:20;21.60;99.90
8436;DHT22;4255;48.730;9.156;2023-07-31T08:21:46;21.70;99.90
8436;DHT22;4255;48.730;9.156;2023-07-31T08:24:11;21.70;99.90
8436;DHT22;4255;48.730;9.156;2023-07-31T08:26:37;22.00;99.90
8436;DHT22;4255;48.730;9.156;2023-07-31T08:29:02;22.20;99.90
8436;DHT22;4255;48.730;9.156;2023-07-31T08:31:28;22.10;99.90
8436;DHT22;4255;48.730;9.156;2023-07-31T08:33:55;22.00;99.90
8436;DHT22;4255;48.730;9.156;2023-07-31T08:36:21;21.90;99.90
8436;DHT22;4255;48.730;9.156;2023-07-31T08:38:46;21.70;99.90
8436;DHT22;4255;48.730;9.156;2023-07-31T08:41:12;21.80;99.90
8436;DHT22;4255;48.730;9.156;2023-07-31T08:43:39;21.90;99.90
8436;DHT22;4255;48.730;9.156;2023-07-31T08:46:05;21.90;99.90
8436;DHT22;4255;48.730;9.156;2023-07-31T08:48:32;22.00;99.90
8436;DHT22;4255;48.730;9.156;2023-07-31T08:50:57;22.20;99.90
8436;DHT22;4255;48.730;9.156;2023-07-31T08:53:23;22.50;99.90
8436;DHT22;4255;48.730;9.156;2023-07-31T08:55:52;22.70;99.90
8436;DHT22;4255;48.730;9.156;2023-07-31T08:58:18;22.50;99.90
8436;DHT22;4255;48.730;9.156;2023-07-31T09:00:46;22.60;99.90
8436;DHT22;4255;48.730;9.156;2023-07-31T09:03:16;22.60;99.90
8436;DHT22;4255;48.730;9.156;2023-07-31T09:05:44;22.60;99.90
8436;DHT22;4255;48.730;9.156;2023-07-31T09:08:12;22.60;99.90
8436;DHT22;4255;48.730;9.156;2023-07-31T09:10:59;22.60;99.90
8436;DHT22;4255;48.730;9.156;2023-07-31T09:13:26;22.60;99.90
8436;DHT22;4255;48.730;9.156;2023-07-31T09:15:52;22.20;99.90
8436;DHT22;4255;48.730;9.156;2023-07-31T09:18:18;22.40;99.90
8436;DHT22;4255;48.730;9.156;2023-07-31T09:21:09;22.60;99.90
8436;DHT22;4255;48.730;9.156;2023-07-31T09:23:46;22.80;99.90
8436;DHT22;4255;48.730;9.156;2023-07-31T09:26:34;22.60;99.90
8436;DHT22;4255;48.730;9.156;2023-07-31T09:29:03;22.60;99.90
8436;DHT22;4255;48.730;9.156;2023-07-31T09:31:40;22.60;99.90
8436;DHT22;4255;48.730;9.156;2023-07-31T09:34:07;22.60;99.90
8436;DHT22;4255;48.730;9.156;2023-07-31T09:36:33;22.60;99.90
8436;DHT22;4255;48.730;9.156;2023-07-31T09:39:04;22.70;99.90
8436;DHT22;4255;48.730;9.156;2023-07-31T09:41:31;22.70;99.90
8436;DHT22;4255;48.730;9.156;2023-07-31T09:43:56;22.40;99.90
8436;DHT22;4255;48.730;9.156;2023-07-31T09:46:22;22.30;99.90
8436;DHT22;4255;48.730;9.156;2023-07-31T09:48:52;22.30;99.90
8436;DHT22;4255;48.730;9.156;2023-07-31T09:51:17;22.50;99.90
8436;DHT22;4255;48.730;9.156;2023-07-31T09:53:51;22.60;99.90
8436;DHT22;4255;48.730;9.156;2023-07-31T09:56:18;22.60;99.90
8436;DHT22;4255;48.730;9.156;2023-07-31T09:58:46;22.90;99.90
8436;DHT22;4255;48.730;9.156;2023-07-31T10:01:13;23.20;99.90
8436;DHT22;4255;48.730;9.156;2023-07-31T10:03:40;23.40;99.90
8436;DHT22;4255;48.730;9.156;2023-07-31T10:06:08;23.40;99.90
8436;DHT22;4255;48.730;9.156;2023-07-31T10:08:36;23.50;99.90
8436;DHT22;4255;48.730;9.156;2023-07-31T10:11:03;23.30;99.90
8436;DHT22;4255;48.730;9.156;2023-07-31T10:13:35;23.00;99.90
8436;DHT22;4255;48.730;9.156;2023-07-31T10:16:01;22.90;99.90
8436;DHT22;4255;48.730;9.156;2023-07-31T10:18:28;23.30;99.90
8436;DHT22;4255;48.730;9.156;2023-07-31T10:20:55;23.60;99.90
8436;DHT22;4255;48.730;9.156;2023-07-31T10:23:22;23.70;99.90
8436;DHT22;4255;48.730;9.156;2023-07-31T10:25:48;23.80;99.90
8436;DHT22;4255;48.730;9.156;2023-07-31T10:28:15;24.10;99.90
8436;DHT22;4255;48.730;9.156;2023-07-31T10:30:44;23.90;99.90
8436;DHT22;4255;48.730;9.156;2023-07-31T10:33:10;24.20;99.90
8436;DHT22;4255;48.730;9.156;2023-07-31T10:35:36;24.20;99.90
8436;DHT22;4255;48.730;9.156;2023-07-31T10:38:12;24.20;99.90
8436;DHT22;4255;48.730;9.156;2023-07-31T10:40:39;24.20;99.90
8436;DHT22;4255;48.730;9.156;2023-07-31T10:43:05;23.70;99.90
8436;DHT22;4255;48.730;9.156;2023-07-31T10:45:32;23.70;99.90
8436;DHT22;4255;48.730;9.156;2023-07-31T10:48:00;23.80;99.90
8436;DHT22;4255;48.730;9.156;2023-07-31T10:50:30;23.80;99.90
8436;DHT22;4255;48.730;9.156;2023-07-31T10:52:58;23.90;99.90
8436;DHT22;4255;48.730;9.156;2023-07-31T10:55:28;24.30;99.90
8436;DHT22;4255;48.730;9.156;2023-07-31T10:57:55;23.90;99.90
8436;DHT22;4255;48.730;9.156;2023-07-31T11:00:30;24.00;99.90
8436;DHT22;4255;48.730;9.156;2023-07-31T11:10:38;23.20;99.90
8436;DHT22;4255;48.730;9.156;2023-07-31T11:13:06;23.00;99.90
8436;DHT22;4255;48.730;9.156;2023-07-31T11:15:32;23.00;99.90
8436;DHT22;4255;48.730;9.156;2023-07-31T11:18:00;23.20;99.90
8436;DHT22;4255;48.730;9.156;2023-07-31T11:20:29;23.20;99.90
8436;DHT22;4255;48.730;9.156;2023-07-31T11:23:07;23.30;99.90
8436;DHT22;4255;48.730;9.156;2023-07-31T11:25:34;23.40;99.90
8436;DHT22;4255;48.730;9.156;2023-07-31T11:28:10;23.70;99.90
8436;DHT22;4255;48.730;9.156;2023-07-31T11:30:36;23.90;99.90
8436;DHT22;4255;48.730;9.156;2023-07-31T11:33:04;23.90;99.90
8436;DHT22;4255;48.730;9.156;2023-07-31T11:35:34;23.70;99.90
8436;DHT22;4255;48.730;9.156;2023-07-31T11:38:01;23.60;99.90
8436;DHT22;4255;48.730;9.156;2023-07-31T11:40:28;23.40;99.90
8436;DHT22;4255;48.730;9.156;2023-07-31T11:43:04;23.50;99.90
8436;DHT22;4255;48.730;9.156;2023-07-31T11:45:30;23.60;99.90
8436;DHT22;4255;48.730;9.156;2023-07-31T11:47:56;23.70;99.90
8436;DHT22;4255;48.730;9.156;2023-07-31T11:50:23;24.00;99.90
8436;DHT22;4255;48.730;9.156;2023-07-31T11:52:55;24.10;99.90
8436;DHT22;4255;48.730;9.156;2023-07-31T11:55:22;24.10;99.90
8436;DHT22;4255;48.730;9.156;2023-07-31T11:57:49;24.20;99.90
8436;DHT22;4255;48.730;9.156;2023-07-31T12:00:15;24.10;99.90
8436;DHT22;4255;48.730;9.156;2023-07-31T12:02:43;24.00;99.90
8436;DHT22;4255;48.730;9.156;2023-07-31T12:05:14;24.10;99.90
8436;DHT22;4255;48.730;9.156;2023-07-31T12:10:23;24.20;99.90
8436;DHT22;4255;48.730;9.156;2023-07-31T12:15:44;24.10;99.90
8436;DHT22;4255;48.730;9.156;2023-07-31T12:18:14;24.20;99.90
8436;DHT22;4255;48.730;9.156;2023-07-31T12:20:49;24.10;99.90
8436;DHT22;4255;48.730;9.156;2023-07-31T12:23:17;24.10;99.90
8436;DHT22;4255;48.730;9.156;2023-07-31T12:25:43;23.90;99.90
8436;DHT22;4255;48.730;9.156;2023-07-31T12:28:09;23.80;99.90
8436;DHT22;4255;48.730;9.156;2023-07-31T12:30:40;23.70;99.90
8436;DHT22;4255;48.730;9.156;2023-07-31T12:33:16;23.60;99.90
8436;DHT22;4255;48.730;9.156;2023-07-31T12:35:45;23.50;99.90
8436;DHT22;4255;48.730;9.156;2023-07-31T12:38:12;23.40;99.90
8436;DHT22;4255;48.730;9.156;2023-07-31T12:40:40;23.50;99.90
8436;DHT22;4255;48.730;9.156;2023-07-31T12:43:06;23.30;99.90
8436;DHT22;4255;48.730;9.156;2023-07-31T12:45:32;23.30;99.90
8436;DHT22;4255;48.730;9.156;2023-07-31T12:47:59;23.30;99.90
8436;DHT22;4255;48.730;9.156;2023-07-31T12:50:25;23.30;99.90
8436;DHT22;4255;48.730;9.156;2023-07-31T12:52:52;23.40;99.90
8436;DHT22;4255;48.730;9.156;2023-07-31T12:55:18;23.40;99.90
8436;DHT22;4255;48.730;9.156;2023-07-31T12:57:44;23.50;99.90
8436;DHT22;4255;48.730;9.156;2023-07-31T13:00:10;23.80;99.90
8436;DHT22;4255;48.730;9.156;2023-07-31T13:02:36;24.00;99.90
8436;DHT22;4255;48.730;9.156;2023-07-31T13:05:02;24.30;99.90
8436;DHT22;4255;48.730;9.156;2023-07-31T13:07:29;24.60;99.90
8436;DHT22;4255;48.730;9.156;2023-07-31T13:09:54;24.70;99.90
8436;DHT22;4255;48.730;9.156;2023-07-31T13:12:20;24.70;99.90
8436;DHT22;4255;48.730;9.156;2023-07-31T13:14:45;24.90;99.90
8436;DHT22;4255;48.730;9.156;2023-07-31T13:17:11;25.20;99.90
8436;DHT22;4255;48.730;9.156;2023-07-31T13:19:37;25.70;99.90
8436;DHT22;4255;48.730;9.156;2023-07-31T13:22:03;25.60;99.90
8436;DHT22;4255;48.730;9.156;2023-07-31T13:24:29;25.90;99.90
8436;DHT22;4255;48.730;9.156;2023-07-31T13:26:56;25.90;99.90
8436;DHT22;4255;48.730;9.156;2023-07-31T13:29:22;26.10;99.90
8436;DHT22;4255;48.730;9.156;2023-07-31T13:31:48;26.00;99.40
8436;DHT22;4255;48.730;9.156;2023-07-31T13:34:13;26.00;97.80
8436;DHT22;4255;48.730;9.156;2023-07-31T13:36:39;25.70;99.90
8436;DHT22;4255;48.730;9.156;2023-07-31T13:39:04;25.40;99.90
8436;DHT22;4255;48.730;9.156;2023-07-31T13:41:30;25.10;99.90
8436;DHT22;4255;48.730;9.156;2023-07-31T13:43:56;24.70;99.90
8436;DHT22;4255;48.730;9.156;2023-07-31T13:46:21;24.40;99.90
8436;DHT22;4255;48.730;9.156;2023-07-31T13:48:47;24.20;99.90
8436;DHT22;4255;48.730;9.156;2023-07-31T13:51:12;24.30;99.90
8436;DHT22;4255;48.730;9.156;2023-07-31T13:53:38;24.00;99.90
8436;DHT22;4255;48.730;9.156;2023-07-31T13:56:04;24.00;99.90
8436;DHT22;4255;48.730;9.156;2023-07-31T13:58:30;24.10;99.90
8436;DHT22;4255;48.730;9.156;2023-07-31T14:00:55;24.20;99.90
8436;DHT22;4255;48.730;9.156;2023-07-31T14:03:21;24.10;99.90
8436;DHT22;4255;48.730;9.156;2023-07-31T14:05:47;24.00;99.90
8436;DHT22;4255;48.730;9.156;2023-07-31T14:08:13;23.80;99.90
8436;DHT22;4255;48.730;9.156;2023-07-31T14:10:38;23.80;99.90
8436;DHT22;4255;48.730;9.156;2023-07-31T14:13:04;23.90;99.90
8436;DHT22;4255;48.730;9.156;2023-07-31T14:15:30;24.10;99.90
8436;DHT22;4255;48.730;9.156;2023-07-31T14:17:57;24.10;99.90
8436;DHT22;4255;48.730;9.156;2023-07-31T14:20:22;24.30;99.90
8436;DHT22;4255;48.730;9.156;2023-07-31T14:22:48;24.60;99.90
8436;DHT22;4255;48.730;9.156;2023-07-31T14:25:14;24.60;99.90
8436;DHT22;4255;48.730;9.156;2023-07-31T14:27:39;24.50;99.90
8436;DHT22;4255;48.730;9.156;2023-07-31T14:30:05;24.60;99.90
8436;DHT22;4255;48.730;9.156;2023-07-31T14:32:31;24.50;99.90
8436;DHT22;4255;48.730;9.156;2023-07-31T14:34:57;24.30;99.90
8436;DHT22;4255;48.730;9.156;2023-07-31T14:37:26;24.50;99.90
8436;DHT22;4255;48.730;9.156;2023-07-31T14:39:52;24.80;99.90
8436;DHT22;4255;48.730;9.156;2023-07-31T14:42:18;24.90;99.90
8436;DHT22;4255;48.730;9.156;2023-07-31T14:44:44;24.70;99.90
8436;DHT22;4255;48.730;9.156;2023-07-31T14:47:10;24.60;99.90
8436;DHT22;4255;48.730;9.156;2023-07-31T14:49:35;24.70;99.90
8436;DHT22;4255;48.730;9.156;2023-07-31T14:52:01;24.90;99.90
8436;DHT22;4255;48.730;9.156;2023-07-31T14:54:26;24.90;99.90
8436;DHT22;4255;48.730;9.156;2023-07-31T14:56:52;24.70;99.90
8436;DHT22;4255;48.730;9.156;2023-07-31T14:59:18;24.80;99.90
8436;DHT22;4255;48.730;9.156;2023-07-31T15:01:43;24.70;99.90
8436;DHT22;4255;48.730;9.156;2023-07-31T15:04:11;24.40;99.90
8436;DHT22;4255;48.730;9.156;2023-07-31T15:06:37;24.60;99.90
8436;DHT22;4255;48.730;9.156;2023-07-31T15:09:02;24.30;99.90
8436;DHT22;4255;48.730;9.156;2023-07-31T15:11:28;24.20;99.90
8436;DHT22;4255;48.730;9.156;2023-07-31T15:13:53;24.40;99.90
8436;DHT22;4255;48.730;9.156;2023-07-31T15:16:19;24.70;99.90
8436;DHT22;4255;48.730;9.156;2023-07-31T15:18:45;24.60;99.90
8436;DHT22;4255;48.730;9.156;2023-07-31T15:21:11;24.70;99.90
8436;DHT22;4255;48.730;9.156;2023-07-31T15:23:36;24.70;99.90
8436;DHT22;4255;48.730;9.156;2023-07-31T15:26:04;24.60;99.90
8436;DHT22;4255;48.730;9.156;2023-07-31T15:28:31;24.80;99.90
8436;DHT22;4255;48.730;9.156;2023-07-31T15:30:56;24.90;99.90
8436;DHT22;4255;48.730;9.156;2023-07-31T15:33:22;25.20;99.90
8436;DHT22;4255;48.730;9.156;2023-07-31T15:35:47;25.10;99.20
8436;DHT22;4255;48.730;9.156;2023-07-31T15:38:13;25.20;99.20
8436;DHT22;4255;48.730;9.156;2023-07-31T15:40:39;25.00;99.70
8436;DHT22;4255;48.730;9.156;2023-07-31T15:43:05;24.90;99.90
8436;DHT22;4255;48.730;9.156;2023-07-31T15:45:31;25.10;99.90
8436;DHT22;4255;48.730;9.156;2023-07-31T15:47:57;25.10;99.90
8436;DHT22;4255;48.730;9.156;2023-07-31T15:50:22;25.30;99.90
8436;DHT22;4255;48.730;9.156;2023-07-31T15:52:48;25.40;99.90
8436;DHT22;4255;48.730;9.156;2023-07-31T15:55:13;25.60;99.90
8436;DHT22;4255;48.730;9.156;2023-07-31T15:57:39;25.80;99.90
8436;DHT22;4255;48.730;9.156;2023-07-31T16:00:06;25.70;99.20
8436;DHT22;4255;48.730;9.156;2023-07-31T16:02:34;26.00;99.90
8436;DHT22;4255;48.730;9.156;2023-07-31T16:05:00;26.20;98.40
8436;DHT22;4255;48.730;9.156;2023-07-31T16:07:25;26.20;99.90
8436;DHT22;4255;48.730;9.156;2023-07-31T16:09:52;26.40;99.90
8436;DHT22;4255;48.730;9.156;2023-07-31T16:12:17;26.10;99.30
8436;DHT22;4255;48.730;9.156;2023-07-31T16:14:43;26.10;99.90
8436;DHT22;4255;48.730;9.156;2023-07-31T16:17:08;26.20;98.30
8436;DHT22;4255;48.730;9.156;2023-07-31T16:19:34;26.20;99.20
8436;DHT22;4255;48.730;9.156;2023-07-31T16:22:00;26.20;97.50
8436;DHT22;4255;48.730;9.156;2023-07-31T16:24:25;25.90;96.80